createdAt,value
2023-04-20T00:02:15.268Z,6.03
2023-04-20T00:04:43.753Z,6.00
2023-04-20T00:07:10.339Z,5.89
2023-04-20T00:09:37.003Z,5.81
2023-04-20T00:12:03.402Z,5.80
2023-04-20T00:14:29.941Z,5.77
2023-04-20T00:16:56.395Z,5.80
2023-04-20T00:19:23.166Z,5.76
2023-04-20T00:21:49.889Z,5.66
2023-04-20T00:24:16.321Z,5.70
2023-04-20T00:26:42.666Z,5.64
2023-04-20T00:29:09.043Z,5.68
2023-04-20T00:31:35.373Z,5.72
2023-04-20T00:34:01.680Z,5.73
2023-04-20T00:36:28.025Z,5.70
2023-04-20T00:38:54.346Z,5.68
2023-04-20T00:41:21.274Z,5.58
2023-04-20T00:43:52.341Z,5.50
2023-04-20T00:46:22.285Z,5.50
2023-04-20T00:48:51.979Z,5.49
2023-04-20T00:51:19.837Z,5.49
2023-04-20T00:53:46.400Z,5.41
2023-04-20T00:56:16.566Z,5.35
2023-04-20T00:58:46.086Z,5.31
2023-04-20T01:01:17.418Z,5.19
2023-04-20T01:03:44.916Z,5.08
2023-04-20T01:06:13.579Z,5.08
2023-04-20T01:08:50.607Z,5.00
2023-04-20T01:11:17.206Z,4.88
2023-04-20T01:13:43.864Z,4.82
2023-04-20T01:16:11.698Z,4.78
2023-04-20T01:18:46.381Z,4.77
2023-04-20T01:21:14.106Z,4.86
2023-04-20T01:23:40.807Z,4.85
2023-04-20T01:26:12.605Z,4.72
2023-04-20T01:28:39.049Z,4.65
2023-04-20T01:31:06.962Z,4.63
2023-04-20T01:33:34.093Z,4.53
2023-04-20T01:36:00.744Z,4.46
2023-04-20T01:38:27.314Z,4.40
2023-04-20T01:40:55.310Z,4.50
2023-04-20T01:43:22.959Z,4.41
2023-04-20T01:45:49.346Z,4.42
2023-04-20T01:48:16.014Z,4.50
2023-04-20T01:50:42.801Z,4.74
2023-04-20T01:53:09.535Z,4.58
2023-04-20T01:55:35.897Z,4.32
2023-04-20T01:58:02.220Z,4.16
2023-04-20T02:00:28.569Z,4.06
2023-04-20T02:02:55.083Z,4.07
2023-04-20T02:05:21.610Z,4.03
2023-04-20T02:07:48.073Z,3.92
2023-04-20T02:10:14.541Z,4.00
2023-04-20T02:12:40.863Z,3.91
2023-04-20T02:15:09.110Z,3.85
2023-04-20T02:17:37.030Z,3.77
2023-04-20T02:20:09.124Z,3.74
2023-04-20T02:22:35.486Z,3.82
2023-04-20T02:25:02.464Z,3.83
2023-04-20T02:27:28.840Z,3.83
2023-04-20T02:29:55.146Z,3.81
2023-04-20T02:32:21.796Z,3.83
2023-04-20T02:34:48.184Z,3.83
2023-04-20T02:37:14.571Z,3.82
2023-04-20T02:39:40.861Z,3.80
2023-04-20T02:42:07.821Z,3.84
2023-04-20T02:44:34.138Z,3.88
2023-04-20T02:47:00.458Z,3.89
2023-04-20T02:49:26.794Z,3.84
2023-04-20T02:51:53.184Z,3.83
2023-04-20T02:54:19.595Z,3.88
2023-04-20T02:56:45.928Z,3.96
2023-04-20T02:59:12.330Z,3.91
2023-04-20T03:01:38.703Z,4.00
2023-04-20T03:04:05.214Z,3.93
2023-04-20T03:06:32.453Z,4.08
2023-04-20T03:08:58.778Z,4.03
2023-04-20T03:11:25.336Z,4.08
2023-04-20T03:13:51.616Z,4.06
2023-04-20T03:16:18.129Z,4.08
2023-04-20T03:18:44.550Z,4.04
2023-04-20T03:21:12.329Z,4.13
2023-04-20T03:23:38.734Z,4.17
2023-04-20T03:26:05.173Z,4.20
2023-04-20T03:28:31.491Z,4.31
2023-04-20T03:30:57.863Z,4.25
2023-04-20T03:33:24.255Z,4.22
2023-04-20T03:35:50.697Z,4.27
2023-04-20T03:38:17.161Z,4.27
2023-04-20T03:40:43.474Z,4.28
2023-04-20T03:43:11.160Z,4.32
2023-04-20T03:45:37.524Z,4.34
2023-04-20T03:48:04.261Z,4.35
2023-04-20T03:50:30.680Z,4.39
2023-04-20T03:52:56.975Z,4.41
2023-04-20T03:55:23.295Z,4.52
2023-04-20T03:57:49.614Z,4.58
2023-04-20T04:00:16.378Z,4.55
2023-04-20T04:02:42.904Z,4.64
2023-04-20T04:05:09.595Z,4.65
2023-04-20T04:07:35.931Z,4.71
2023-04-20T04:10:04.698Z,4.70
2023-04-20T04:12:31.534Z,4.76
2023-04-20T04:14:58.154Z,4.72
2023-04-20T04:17:24.486Z,4.89
2023-04-20T04:19:50.943Z,4.94
2023-04-20T04:22:17.692Z,4.87
2023-04-20T04:24:44.237Z,4.85
2023-04-20T04:27:11.673Z,4.89
2023-04-20T04:29:38.689Z,4.82
2023-04-20T04:32:05.546Z,4.86
2023-04-20T04:34:33.781Z,4.86
2023-04-20T04:37:01.049Z,4.73
2023-04-20T04:39:28.400Z,4.88
2023-04-20T04:41:54.712Z,4.92
2023-04-20T04:44:21.287Z,4.88
2023-04-20T04:46:47.786Z,4.91
2023-04-20T04:49:15.056Z,4.84
2023-04-20T04:51:41.443Z,4.87
2023-04-20T04:54:07.738Z,4.78
2023-04-20T04:56:34.029Z,4.89
2023-04-20T04:59:00.396Z,4.90
2023-04-20T05:01:26.700Z,4.94
2023-04-20T05:03:53.239Z,4.94
2023-04-20T05:06:19.765Z,4.98
2023-04-20T05:08:46.522Z,4.95
2023-04-20T05:11:12.863Z,5.01
2023-04-20T05:13:39.181Z,4.99
2023-04-20T05:16:05.801Z,5.04
2023-04-20T05:18:32.136Z,5.12
2023-04-20T05:20:59.504Z,5.04
2023-04-20T05:23:25.885Z,5.02
2023-04-20T05:25:52.234Z,5.02
2023-04-20T05:28:19.139Z,5.02
2023-04-20T05:30:45.625Z,4.96
2023-04-20T05:33:11.918Z,5.12
2023-04-20T05:35:40.364Z,5.27
2023-04-20T05:38:06.887Z,5.28
2023-04-20T05:40:34.868Z,5.14
2023-04-20T05:43:01.427Z,5.19
2023-04-20T05:45:27.928Z,5.21
2023-04-20T05:47:55.816Z,5.18
2023-04-20T05:50:26.484Z,5.19
2023-04-20T05:52:53.954Z,5.20
2023-04-20T05:55:22.617Z,5.07
2023-04-20T05:57:51.661Z,5.15
2023-04-20T06:00:18.758Z,5.21
2023-04-20T06:02:45.484Z,5.27
2023-04-20T06:05:12.211Z,5.24
2023-04-20T06:07:38.739Z,5.30
2023-04-20T06:10:06.050Z,5.33
2023-04-20T06:12:32.583Z,5.28
2023-04-20T06:14:59.337Z,5.31
2023-04-20T06:17:25.927Z,5.21
2023-04-20T06:19:52.637Z,5.40
2023-04-20T06:22:19.444Z,5.35
2023-04-20T06:24:46.978Z,5.36
2023-04-20T06:27:13.528Z,5.30
2023-04-20T06:29:39.852Z,5.26
2023-04-20T06:32:06.244Z,5.32
2023-04-20T06:34:32.654Z,5.35
2023-04-20T06:36:59.080Z,5.43
2023-04-20T06:39:25.463Z,5.49
2023-04-20T06:41:51.794Z,5.54
2023-04-20T06:44:18.120Z,5.38
2023-04-20T06:46:44.582Z,5.47
2023-04-20T06:49:11.032Z,5.38
2023-04-20T06:51:37.421Z,5.39
2023-04-20T06:54:03.928Z,5.15
2023-04-20T06:56:30.391Z,5.25
2023-04-20T06:58:56.781Z,5.30
2023-04-20T07:01:23.163Z,5.32
2023-04-20T07:03:50.302Z,5.41
2023-04-20T07:06:17.212Z,5.42
2023-04-20T07:08:43.612Z,5.43
2023-04-20T07:11:10.031Z,5.45
2023-04-20T07:13:36.388Z,5.47
2023-04-20T07:16:03.048Z,5.40
2023-04-20T07:18:29.535Z,5.36
2023-04-20T07:20:55.866Z,5.31
2023-04-20T07:23:22.201Z,5.41
2023-04-20T07:25:48.662Z,5.44
2023-04-20T07:28:15.184Z,5.33
2023-04-20T07:30:41.517Z,5.45
2023-04-20T07:33:08.407Z,5.62
2023-04-20T07:35:34.846Z,5.63
2023-04-20T07:38:01.157Z,5.62
2023-04-20T07:40:27.836Z,5.84
2023-04-20T07:42:54.265Z,5.89
2023-04-20T07:45:21.788Z,6.02
2023-04-20T07:47:51.326Z,6.10
2023-04-20T07:50:18.044Z,6.25
2023-04-20T07:52:44.432Z,6.22
2023-04-20T07:55:14.348Z,6.26
2023-04-20T07:57:41.576Z,6.33
2023-04-20T08:00:09.669Z,6.53
2023-04-20T08:02:36.134Z,6.68
2023-04-20T08:05:03.955Z,6.63
2023-04-20T08:07:30.714Z,6.76
2023-04-20T08:09:57.063Z,6.94
2023-04-20T08:12:23.494Z,7.11
2023-04-20T08:14:49.854Z,7.32
2023-04-20T08:17:16.205Z,7.17
2023-04-20T08:19:44.658Z,7.01
2023-04-20T08:22:12.577Z,7.12
2023-04-20T08:24:39.114Z,7.20
2023-04-20T08:27:06.602Z,7.32
2023-04-20T08:29:32.934Z,7.30
2023-04-20T08:31:59.555Z,7.28
2023-04-20T08:34:26.103Z,7.55
2023-04-20T08:36:52.597Z,7.79
2023-04-20T08:39:21.557Z,7.81
2023-04-20T08:41:48.141Z,7.72
2023-04-20T08:44:14.622Z,7.89
2023-04-20T08:46:46.376Z,8.00
2023-04-20T08:49:15.620Z,8.16
2023-04-20T08:51:43.505Z,8.02
2023-04-20T08:54:11.389Z,8.00
2023-04-20T08:56:40.717Z,8.24
2023-04-20T08:59:10.305Z,8.33
2023-04-20T09:01:41.761Z,8.39
2023-04-20T09:04:24.948Z,8.41
2023-04-20T09:06:56.298Z,8.41
2023-04-20T09:09:24.215Z,8.48
2023-04-20T09:12:02.329Z,8.50
2023-04-20T09:14:29.182Z,8.78
2023-04-20T09:17:00.624Z,8.53
2023-04-20T09:19:30.429Z,8.68
2023-04-20T09:22:03.749Z,8.86
2023-04-20T09:24:32.622Z,9.09
2023-04-20T09:27:01.178Z,9.12
2023-04-20T09:29:27.807Z,9.13
2023-04-20T09:31:54.978Z,9.05
2023-04-20T09:34:21.948Z,9.11
2023-04-20T09:36:50.547Z,9.10
2023-04-20T09:39:22.650Z,9.29
2023-04-20T09:42:03.367Z,9.58
2023-04-20T09:44:29.773Z,9.66
2023-04-20T09:46:56.535Z,9.67
2023-04-20T09:49:23.654Z,9.58
2023-04-20T09:51:50.149Z,9.74
2023-04-20T09:54:16.819Z,9.66
2023-04-20T09:56:43.605Z,10.00
2023-04-20T09:59:10.161Z,10.30
2023-04-20T10:01:38.194Z,10.29
2023-04-20T10:04:09.542Z,10.64
2023-04-20T10:06:37.424Z,10.78
2023-04-20T10:09:08.368Z,10.83
2023-04-20T10:11:52.574Z,11.03
2023-04-20T10:14:24.970Z,11.30
2023-04-20T10:17:04.174Z,11.67
2023-04-20T10:19:45.246Z,11.52
2023-04-20T10:22:33.007Z,11.37
2023-04-20T10:25:01.244Z,11.20
2023-04-20T10:27:27.909Z,10.93
2023-04-20T10:29:54.474Z,10.92
2023-04-20T10:32:27.593Z,11.20
2023-04-20T10:35:04.994Z,11.34
2023-04-20T10:37:32.253Z,11.29
2023-04-20T10:39:59.476Z,11.16
2023-04-20T10:42:29.505Z,11.51
2023-04-20T10:44:56.059Z,11.63
2023-04-20T10:47:30.638Z,12.00
2023-04-20T10:50:16.470Z,12.26
2023-04-20T10:52:43.891Z,12.55
2023-04-20T10:55:23.893Z,12.86
2023-04-20T10:57:51.012Z,13.04
2023-04-20T11:00:20.272Z,13.09
2023-04-20T11:02:47.897Z,12.51
2023-04-20T11:05:15.814Z,12.46
2023-04-20T11:07:54.965Z,12.45
2023-04-20T11:10:23.980Z,12.18
2023-04-20T11:12:51.848Z,12.34
2023-04-20T11:15:18.340Z,12.24
2023-04-20T11:17:45.888Z,12.39
2023-04-20T11:20:14.437Z,12.68
2023-04-20T11:22:42.017Z,12.74
2023-04-20T11:25:10.838Z,12.32
2023-04-20T11:27:39.026Z,12.31
2023-04-20T11:30:07.852Z,12.68
2023-04-20T11:32:35.956Z,13.37
2023-04-20T11:35:09.120Z,13.40
2023-04-20T11:37:51.137Z,13.24
2023-04-20T11:40:17.894Z,13.02
2023-04-20T11:42:44.288Z,13.19
2023-04-20T11:45:11.601Z,13.25
2023-04-20T11:47:40.866Z,12.97
2023-04-20T11:50:08.004Z,13.20
2023-04-20T11:52:34.368Z,13.23
2023-04-20T11:55:00.671Z,12.92
2023-04-20T11:57:27.032Z,12.76
2023-04-20T11:59:53.426Z,12.67
2023-04-20T12:02:19.929Z,12.36
2023-04-20T12:04:46.621Z,12.21
2023-04-20T12:07:13.149Z,12.31
2023-04-20T12:09:40.339Z,12.53
2023-04-20T12:12:08.730Z,12.68
2023-04-20T12:14:35.261Z,12.59
2023-04-20T12:17:03.743Z,12.58
2023-04-20T12:19:30.563Z,12.18
2023-04-20T12:21:57.295Z,12.11
2023-04-20T12:24:23.874Z,12.59
2023-04-20T12:26:50.227Z,12.61
2023-04-20T12:29:16.737Z,12.68
2023-04-20T12:31:43.694Z,12.52
2023-04-20T12:34:10.605Z,12.43
2023-04-20T12:36:36.981Z,12.47
2023-04-20T12:39:03.621Z,12.56
2023-04-20T12:41:30.195Z,12.40
2023-04-20T12:43:56.539Z,12.39
2023-04-20T12:46:22.924Z,12.54
2023-04-20T12:48:49.415Z,12.61
2023-04-20T12:51:15.789Z,12.68
2023-04-20T12:53:42.129Z,12.82
2023-04-20T12:56:08.534Z,12.92
2023-04-20T12:58:34.875Z,13.37
2023-04-20T13:01:01.275Z,13.54
2023-04-20T13:03:28.165Z,13.54
2023-04-20T13:05:54.732Z,13.81
2023-04-20T13:08:21.624Z,13.55
2023-04-20T13:10:48.160Z,13.47
2023-04-20T13:13:14.531Z,13.07
2023-04-20T13:15:41.221Z,12.80
2023-04-20T13:18:09.711Z,12.70
2023-04-20T13:20:36.487Z,12.41
2023-04-20T13:23:04.031Z,12.33
2023-04-20T13:25:33.324Z,12.25
2023-04-20T13:28:01.337Z,12.32
2023-04-20T13:30:27.711Z,12.44
2023-04-20T13:32:54.133Z,12.34
2023-04-20T13:35:20.650Z,12.25
2023-04-20T13:37:47.271Z,12.20
2023-04-20T13:40:13.775Z,11.93
2023-04-20T13:42:40.465Z,12.03
2023-04-20T13:45:07.763Z,11.92
2023-04-20T13:47:34.280Z,12.03
2023-04-20T13:50:02.322Z,11.82
2023-04-20T13:52:28.668Z,11.67
2023-04-20T13:54:55.034Z,11.54
2023-04-20T13:57:21.406Z,11.62
2023-04-20T13:59:47.752Z,11.46
2023-04-20T14:02:14.180Z,11.38
2023-04-20T14:04:40.937Z,11.41
2023-04-20T14:07:07.417Z,11.60
2023-04-20T14:09:33.812Z,11.65
2023-04-20T14:12:02.064Z,11.67
2023-04-20T14:14:28.392Z,11.64
2023-04-20T14:16:54.980Z,11.79
2023-04-20T14:19:21.454Z,11.91
2023-04-20T14:21:47.761Z,11.71
2023-04-20T14:24:14.474Z,11.54
2023-04-20T14:26:41.398Z,11.70
2023-04-20T14:29:07.869Z,11.62
2023-04-20T14:31:34.895Z,11.40
2023-04-20T14:34:01.452Z,11.33
2023-04-20T14:36:28.111Z,11.50
2023-04-20T14:38:55.491Z,11.46
2023-04-20T14:41:22.162Z,11.31
2023-04-20T14:43:48.661Z,11.28
2023-04-20T14:46:15.442Z,11.25
2023-04-20T14:48:42.719Z,11.27
2023-04-20T14:51:09.034Z,11.28
2023-04-20T14:53:35.557Z,11.30
2023-04-20T14:56:01.952Z,11.26
2023-04-20T14:58:28.325Z,11.25
2023-04-20T15:00:54.683Z,11.08
2023-04-20T15:03:21.446Z,11.10
2023-04-20T15:05:48.247Z,11.06
2023-04-20T15:08:14.669Z,11.04
2023-04-20T15:10:41.318Z,11.00
2023-04-20T15:13:07.906Z,11.00
2023-04-20T15:15:47.768Z,11.12
2023-04-20T15:18:16.754Z,11.18
2023-04-20T15:20:43.496Z,11.17
2023-04-20T15:23:10.050Z,11.18
2023-04-20T15:25:36.351Z,11.22
2023-04-20T15:28:03.041Z,11.28
2023-04-20T15:30:30.407Z,11.44
2023-04-20T15:33:04.647Z,11.28
2023-04-20T15:35:31.893Z,11.19
2023-04-20T15:37:58.276Z,11.14
2023-04-20T15:40:24.718Z,11.11
2023-04-20T15:42:51.508Z,11.11
2023-04-20T15:45:17.963Z,11.24
2023-04-20T15:47:44.530Z,11.14
2023-04-20T15:50:11.297Z,11.11
2023-04-20T15:52:37.820Z,11.27
2023-04-20T15:55:04.661Z,11.18
2023-04-20T15:57:31.344Z,11.06
2023-04-20T15:59:57.792Z,10.99
2023-04-20T16:02:24.559Z,10.93
2023-04-20T16:04:51.461Z,10.71
2023-04-20T16:07:18.003Z,10.53
2023-04-20T16:09:44.408Z,10.36
2023-04-20T16:12:10.806Z,10.30
2023-04-20T16:14:37.192Z,10.37
2023-04-20T16:17:03.572Z,10.44
2023-04-20T16:19:31.352Z,10.39
2023-04-20T16:21:58.055Z,10.18
2023-04-20T16:24:24.494Z,10.32
2023-04-20T16:26:51.144Z,10.21
2023-04-20T16:29:17.498Z,10.12
2023-04-20T16:31:43.839Z,10.08
2023-04-20T16:34:11.010Z,10.09
2023-04-20T16:36:37.551Z,10.04
2023-04-20T16:39:06.038Z,10.02
2023-04-20T16:41:32.446Z,9.99
2023-04-20T16:43:58.778Z,10.04
2023-04-20T16:46:25.165Z,10.07
2023-04-20T16:48:51.963Z,10.06
2023-04-20T16:51:18.333Z,9.98
2023-04-20T16:53:45.280Z,10.02
2023-04-20T16:56:12.172Z,10.01
2023-04-20T16:58:38.614Z,9.93
2023-04-20T17:01:05.248Z,9.98
2023-04-20T17:03:32.072Z,9.95
2023-04-20T17:05:58.617Z,10.01
2023-04-20T17:08:26.414Z,10.01
2023-04-20T17:10:52.808Z,9.97
2023-04-20T17:13:19.209Z,9.85
2023-04-20T17:15:46.226Z,9.82
2023-04-20T17:18:12.665Z,9.81
2023-04-20T17:20:39.039Z,9.84
2023-04-20T17:23:05.574Z,9.80
2023-04-20T17:25:31.949Z,9.81
2023-04-20T17:27:58.288Z,9.73
2023-04-20T17:30:24.628Z,9.70
2023-04-20T17:32:52.864Z,9.64
2023-04-20T17:35:19.458Z,9.55
2023-04-20T17:37:45.765Z,9.56
2023-04-20T17:40:12.321Z,9.50
2023-04-20T17:42:38.721Z,9.50
2023-04-20T17:45:06.420Z,9.30
2023-04-20T17:47:32.879Z,9.14
2023-04-20T17:49:59.796Z,9.13
2023-04-20T17:52:26.756Z,9.01
2023-04-20T17:54:54.817Z,8.90
2023-04-20T17:57:21.219Z,8.89
2023-04-20T17:59:47.607Z,8.77
2023-04-20T18:02:14.066Z,8.79
2023-04-20T18:04:40.661Z,8.75
2023-04-20T18:07:07.037Z,8.79
2023-04-20T18:09:33.406Z,8.68
2023-04-20T18:11:59.897Z,8.71
2023-04-20T18:14:26.440Z,8.71
2023-04-20T18:16:54.819Z,8.68
2023-04-20T18:19:21.189Z,8.60
2023-04-20T18:21:47.535Z,8.59
2023-04-20T18:24:13.886Z,8.55
2023-04-20T18:26:40.361Z,8.46
2023-04-20T18:29:06.844Z,8.47
2023-04-20T18:31:33.327Z,8.34
2023-04-20T18:33:59.682Z,8.21
2023-04-20T18:36:26.066Z,8.09
2023-04-20T18:38:53.905Z,8.04
2023-04-20T18:41:22.410Z,7.97
2023-04-20T18:43:49.700Z,7.87
2023-04-20T18:46:16.135Z,7.81
2023-04-20T18:48:42.813Z,7.79
2023-04-20T18:51:09.189Z,7.81
2023-04-20T18:53:35.774Z,7.73
2023-04-20T18:56:02.257Z,7.68
2023-04-20T18:58:29.654Z,7.62
2023-04-20T19:00:56.324Z,7.57
2023-04-20T19:03:25.721Z,7.52
2023-04-20T19:05:52.159Z,7.47
2023-04-20T19:08:18.629Z,7.55
2023-04-20T19:10:45.006Z,7.56
2023-04-20T19:13:11.477Z,7.45
2023-04-20T19:15:40.400Z,7.44
2023-04-20T19:18:06.740Z,7.41
2023-04-20T19:20:33.137Z,7.36
2023-04-20T19:22:59.514Z,7.33
2023-04-20T19:25:25.991Z,7.34
2023-04-20T19:27:52.392Z,7.26
2023-04-20T19:30:18.859Z,7.28
2023-04-20T19:32:45.615Z,7.29
2023-04-20T19:35:12.029Z,7.35
2023-04-20T19:37:38.349Z,7.35
2023-04-20T19:40:06.019Z,7.32
2023-04-20T19:42:32.444Z,7.37
2023-04-20T19:44:58.921Z,7.36
2023-04-20T19:47:25.341Z,7.35
2023-04-20T19:49:51.725Z,7.32
2023-04-20T19:52:18.122Z,7.40
2023-04-20T19:54:44.546Z,7.44
2023-04-20T19:57:11.639Z,7.43
2023-04-20T19:59:38.935Z,7.40
2023-04-20T20:02:05.452Z,7.36
2023-04-20T20:04:32.539Z,7.36
2023-04-20T20:06:59.121Z,7.43
2023-04-20T20:09:25.745Z,7.42
2023-04-20T20:11:52.237Z,7.37
2023-04-20T20:14:19.124Z,7.38
2023-04-20T20:16:45.557Z,7.44
2023-04-20T20:19:11.926Z,7.32
2023-04-20T20:21:38.282Z,7.26
2023-04-20T20:24:04.716Z,7.28
2023-04-20T20:26:31.177Z,7.27
2023-04-20T20:28:57.522Z,7.25
2023-04-20T20:31:23.909Z,7.21
2023-04-20T20:33:50.264Z,7.20
2023-04-20T20:36:17.753Z,7.30
2023-04-20T20:38:44.226Z,7.09
2023-04-20T20:41:10.827Z,7.24
2023-04-20T20:43:37.458Z,7.21
2023-04-20T20:46:03.988Z,7.17
2023-04-20T20:48:30.522Z,7.13
2023-04-20T20:50:56.876Z,7.12
2023-04-20T20:53:23.221Z,7.25
2023-04-20T20:55:49.530Z,7.25
2023-04-20T20:58:15.865Z,7.13
2023-04-20T21:00:42.276Z,7.08
2023-04-20T21:03:08.900Z,7.12
2023-04-20T21:05:35.826Z,7.20
2023-04-20T21:08:02.459Z,7.29
2023-04-20T21:10:28.895Z,7.44
2023-04-20T21:12:55.266Z,7.33
2023-04-20T21:15:21.598Z,7.16
2023-04-20T21:17:48.074Z,7.21
2023-04-20T21:20:14.531Z,7.15
2023-04-20T21:22:40.874Z,7.18
2023-04-20T21:25:07.651Z,7.39
2023-04-20T21:27:34.085Z,7.26
2023-04-20T21:30:00.414Z,7.27
2023-04-20T21:32:26.893Z,7.19
2023-04-20T21:34:53.349Z,7.30
2023-04-20T21:37:20.797Z,7.26
2023-04-20T21:39:47.286Z,7.15
2023-04-20T21:42:13.598Z,7.13
2023-04-20T21:44:39.961Z,7.00
2023-04-20T21:47:06.262Z,6.97
2023-04-20T21:49:33.222Z,6.92
2023-04-20T21:51:59.682Z,6.96
2023-04-20T21:54:26.042Z,6.90
2023-04-20T21:56:52.382Z,6.92
2023-04-20T21:59:18.916Z,6.88
2023-04-20T22:01:45.336Z,6.87
2023-04-20T22:04:11.858Z,6.78
2023-04-20T22:06:38.341Z,6.84
2023-04-20T22:09:04.933Z,6.86
2023-04-20T22:11:31.665Z,6.78
2023-04-20T22:13:58.019Z,6.77
2023-04-20T22:16:25.646Z,6.69
2023-04-20T22:18:52.015Z,6.75
2023-04-20T22:21:18.322Z,6.73
2023-04-20T22:23:44.646Z,6.68
2023-04-20T22:26:11.111Z,6.71
2023-04-20T22:28:37.458Z,6.72
2023-04-20T22:31:03.893Z,6.69
2023-04-20T22:33:30.226Z,6.67
2023-04-20T22:35:56.590Z,6.66
2023-04-20T22:38:23.016Z,6.69
2023-04-20T22:40:49.355Z,6.62
2023-04-20T22:43:15.817Z,6.64
2023-04-20T22:45:42.146Z,6.59
2023-04-20T22:48:09.249Z,6.61
2023-04-20T22:50:35.779Z,6.57
2023-04-20T22:53:02.129Z,6.61
2023-04-20T22:55:28.448Z,6.59
2023-04-20T22:57:54.814Z,6.64
2023-04-20T23:00:21.523Z,6.60
2023-04-20T23:02:48.074Z,6.67
2023-04-20T23:05:20.169Z,6.63
2023-04-20T23:07:46.650Z,6.65
2023-04-20T23:10:16.019Z,6.57
2023-04-20T23:12:44.587Z,6.58
2023-04-20T23:15:11.950Z,6.57
2023-04-20T23:17:38.575Z,6.60
2023-04-20T23:20:10.263Z,6.59
2023-04-20T23:22:37.116Z,6.60
2023-04-20T23:25:03.586Z,6.58
2023-04-20T23:27:29.969Z,6.55
2023-04-20T23:29:56.324Z,6.60
2023-04-20T23:32:22.736Z,6.57
2023-04-20T23:34:49.162Z,6.57
2023-04-20T23:37:15.816Z,6.57
2023-04-20T23:39:42.153Z,6.50
2023-04-20T23:42:08.458Z,6.45
2023-04-20T23:44:34.874Z,6.46
2023-04-20T23:47:01.236Z,6.42
2023-04-20T23:49:27.654Z,6.43
2023-04-20T23:51:53.985Z,6.44
2023-04-20T23:54:20.445Z,6.38
2023-04-20T23:56:46.767Z,6.33
2023-04-20T23:59:13.167Z,6.29
